Basin, Idaho
Current Conditions -  °F | °C
As of 12:53 PM on Friday 31 Oct 2014 (Local Time) from KBYI Reporting Station
Clear Clear  
Wind Chill: 61°   Ceiling: Unl
Heat Index: 61°   Visibility: 10mi
Dew Point: 33°   Wind: 5mph
Humidity: 35%   Direction: 140°SE
Pressure: 29.87"   Gusts: NA
Location:  42.2256°N, 114.022°W
Report Text: KBYI 311853Z AUTO 14004KT 10SM CLR 16/01 A2987 RMK AO2 SLP093 T01610006
Loading
Personal Weather Stations






























Interactive Weather Map
Tropical Storm Tracking
New forecast layout! Learn more

10-Day Weather Forecast

Advertisements
Track Severe Weather on mobile